sensor_id;sensor_type;location;lat;lon;timestamp;pressure;altitude;pressure_sealevel;temperature;humidity
34073;BME280;20346;52.702;16.886;2022-08-18T00:00:56;100523.69;;;24.32;53.24
34073;BME280;20346;52.702;16.886;2022-08-18T00:03:42;100520.80;;;24.29;53.27
34073;BME280;20346;52.702;16.886;2022-08-18T00:06:27;100521.98;;;24.25;53.39
34073;BME280;20346;52.702;16.886;2022-08-18T00:09:12;100528.42;;;24.21;53.75
34073;BME280;20346;52.702;16.886;2022-08-18T00:11:59;100523.36;;;24.18;53.48
34073;BME280;20346;52.702;16.886;2022-08-18T00:14:45;100520.58;;;24.14;53.60
34073;BME280;20346;52.702;16.886;2022-08-18T00:17:32;100517.19;;;24.06;54.16
34073;BME280;20346;52.702;16.886;2022-08-18T00:20:20;100517.19;;;24.06;54.16
34073;BME280;20346;52.702;16.886;2022-08-18T00:23:06;100527.86;;;24.05;53.93
34073;BME280;20346;52.702;16.886;2022-08-18T00:25:51;100526.28;;;24.02;54.07
34073;BME280;20346;52.702;16.886;2022-08-18T00:28:36;100525.55;;;24.00;54.19
34073;BME280;20346;52.702;16.886;2022-08-18T00:31:21;100523.03;;;23.99;54.26
34073;BME280;20346;52.702;16.886;2022-08-18T00:34:06;100520.98;;;23.97;54.43
34073;BME280;20346;52.702;16.886;2022-08-18T00:36:51;100518.92;;;23.95;54.57
34073;BME280;20346;52.702;16.886;2022-08-18T00:39:36;100522.16;;;23.93;54.65
34073;BME280;20346;52.702;16.886;2022-08-18T00:42:24;100519.52;;;23.87;54.81
34073;BME280;20346;52.702;16.886;2022-08-18T00:45:15;100523.11;;;23.86;54.93
34073;BME280;20346;52.702;16.886;2022-08-18T00:48:02;100519.38;;;23.83;55.08
34073;BME280;20346;52.702;16.886;2022-08-18T00:50:53;100519.84;;;23.83;55.20
34073;BME280;20346;52.702;16.886;2022-08-18T00:56:42;100521.75;;;23.81;55.42
34073;BME280;20346;52.702;16.886;2022-08-18T01:02:44;100524.62;;;23.78;55.60
34073;BME280;20346;52.702;16.886;2022-08-18T01:05:37;100518.49;;;23.77;55.72
34073;BME280;20346;52.702;16.886;2022-08-18T01:08:24;100521.13;;;23.77;55.86
34073;BME280;20346;52.702;16.886;2022-08-18T01:11:09;100518.60;;;23.75;55.94
34073;BME280;20346;52.702;16.886;2022-08-18T01:13:56;100521.69;;;23.69;56.03
34073;BME280;20346;52.702;16.886;2022-08-18T01:16:41;100526.70;;;23.67;56.16
34073;BME280;20346;52.702;16.886;2022-08-18T01:19:46;100533.53;;;23.64;56.30
34073;BME280;20346;52.702;16.886;2022-08-18T01:23:07;100524.40;;;23.62;56.37
34073;BME280;20346;52.702;16.886;2022-08-18T01:25:52;100531.69;;;23.59;56.50
34073;BME280;20346;52.702;16.886;2022-08-18T01:28:44;100540.56;;;23.58;56.61
34073;BME280;20346;52.702;16.886;2022-08-18T01:31:36;100537.56;;;23.57;56.74
34073;BME280;20346;52.702;16.886;2022-08-18T01:34:24;100532.53;;;23.59;56.78
34073;BME280;20346;52.702;16.886;2022-08-18T01:37:11;100534.22;;;23.60;56.87
34073;BME280;20346;52.702;16.886;2022-08-18T01:39:56;100535.55;;;23.60;56.93
34073;BME280;20346;52.702;16.886;2022-08-18T01:42:41;100531.55;;;23.55;57.03
34073;BME280;20346;52.702;16.886;2022-08-18T01:45:28;100528.25;;;23.51;57.16
34073;BME280;20346;52.702;16.886;2022-08-18T01:48:15;100524.14;;;23.47;57.24
34073;BME280;20346;52.702;16.886;2022-08-18T01:51:02;100520.03;;;23.43;57.33
34073;BME280;20346;52.702;16.886;2022-08-18T01:53:50;100507.89;;;23.40;57.43
34073;BME280;20346;52.702;16.886;2022-08-18T01:56:35;100500.95;;;23.39;57.57
34073;BME280;20346;52.702;16.886;2022-08-18T01:59:21;100497.34;;;23.40;57.62
34073;BME280;20346;52.702;16.886;2022-08-18T02:02:06;100494.70;;;23.40;57.72
34073;BME280;20346;52.702;16.886;2022-08-18T02:04:55;100494.84;;;23.39;57.84
34073;BME280;20346;52.702;16.886;2022-08-18T02:07:44;100478.92;;;23.28;57.79
34073;BME280;20346;52.702;16.886;2022-08-18T02:10:28;100500.33;;;23.36;57.98
34073;BME280;20346;52.702;16.886;2022-08-18T02:13:14;100503.30;;;23.31;58.08
34073;BME280;20346;52.702;16.886;2022-08-18T02:16:00;100503.98;;;23.28;58.20
34073;BME280;20346;52.702;16.886;2022-08-18T02:18:45;100501.09;;;23.25;58.27
34073;BME280;20346;52.702;16.886;2022-08-18T02:21:30;100510.44;;;23.24;58.68
34073;BME280;20346;52.702;16.886;2022-08-18T02:24:15;100503.58;;;23.21;58.37
34073;BME280;20346;52.702;16.886;2022-08-18T02:27:00;100510.65;;;23.21;58.45
34073;BME280;20346;52.702;16.886;2022-08-18T02:29:45;100501.63;;;23.18;58.55
34073;BME280;20346;52.702;16.886;2022-08-18T02:32:31;100503.16;;;23.15;58.64
34073;BME280;20346;52.702;16.886;2022-08-18T02:35:17;100503.95;;;23.09;58.71
34073;BME280;20346;52.702;16.886;2022-08-18T02:38:05;100503.43;;;23.04;58.85
34073;BME280;20346;52.702;16.886;2022-08-18T02:40:55;100499.95;;;23.04;58.94
34073;BME280;20346;52.702;16.886;2022-08-18T02:43:41;100501.95;;;23.00;59.01
34073;BME280;20346;52.702;16.886;2022-08-18T02:46:26;100500.69;;;22.93;59.10
34073;BME280;20346;52.702;16.886;2022-08-18T02:49:11;100502.33;;;22.89;59.15
34073;BME280;20346;52.702;16.886;2022-08-18T02:51:57;100498.62;;;22.86;59.26
34073;BME280;20346;52.702;16.886;2022-08-18T02:54:42;100495.72;;;22.83;59.33
34073;BME280;20346;52.702;16.886;2022-08-18T02:57:28;100500.52;;;22.84;59.39
34073;BME280;20346;52.702;16.886;2022-08-18T03:00:17;100503.25;;;22.82;59.49
34073;BME280;20346;52.702;16.886;2022-08-18T03:03:02;100500.25;;;22.81;59.56
34073;BME280;20346;52.702;16.886;2022-08-18T03:05:47;100500.90;;;22.77;59.61
34073;BME280;20346;52.702;16.886;2022-08-18T03:08:32;100499.53;;;22.72;59.70
34073;BME280;20346;52.702;16.886;2022-08-18T03:11:20;100500.21;;;22.68;59.80
34073;BME280;20346;52.702;16.886;2022-08-18T03:14:07;100498.89;;;22.68;59.89
34073;BME280;20346;52.702;16.886;2022-08-18T03:16:53;100491.56;;;22.66;59.96
34073;BME280;20346;52.702;16.886;2022-08-18T03:19:38;100494.87;;;22.63;60.04
34073;BME280;20346;52.702;16.886;2022-08-18T03:22:23;100494.24;;;22.59;60.09
34073;BME280;20346;52.702;16.886;2022-08-18T03:25:08;100497.45;;;22.57;60.22
34073;BME280;20346;52.702;16.886;2022-08-18T03:27:53;100498.50;;;22.55;60.25
34073;BME280;20346;52.702;16.886;2022-08-18T03:30:39;100501.52;;;22.56;60.32
34073;BME280;20346;52.702;16.886;2022-08-18T03:33:23;100499.55;;;22.52;60.42
34073;BME280;20346;52.702;16.886;2022-08-18T03:36:15;100508.88;;;22.51;60.45
34073;BME280;20346;52.702;16.886;2022-08-18T03:39:04;100510.03;;;22.46;60.57
34073;BME280;20346;52.702;16.886;2022-08-18T03:41:52;100501.86;;;22.44;60.70
34073;BME280;20346;52.702;16.886;2022-08-18T03:44:37;100511.08;;;22.44;60.75
34073;BME280;20346;52.702;16.886;2022-08-18T03:47:22;100505.81;;;22.44;60.85
34073;BME280;20346;52.702;16.886;2022-08-18T03:50:07;100511.92;;;22.44;60.90
34073;BME280;20346;52.702;16.886;2022-08-18T03:52:52;100517.47;;;22.47;60.99
34073;BME280;20346;52.702;16.886;2022-08-18T03:55:39;100515.30;;;22.46;61.01
34073;BME280;20346;52.702;16.886;2022-08-18T03:58:24;100513.72;;;22.44;61.13
34073;BME280;20346;52.702;16.886;2022-08-18T04:01:15;100521.89;;;22.46;61.26
34073;BME280;20346;52.702;16.886;2022-08-18T04:04:01;100521.42;;;22.47;61.27
34073;BME280;20346;52.702;16.886;2022-08-18T04:06:51;100520.95;;;22.48;61.35
34073;BME280;20346;52.702;16.886;2022-08-18T04:09:38;100524.90;;;22.48;61.43
34073;BME280;20346;52.702;16.886;2022-08-18T04:12:22;100523.48;;;22.49;61.49
34073;BME280;20346;52.702;16.886;2022-08-18T04:15:08;100524.32;;;22.50;61.59
34073;BME280;20346;52.702;16.886;2022-08-18T04:17:53;100524.48;;;22.54;61.67
34073;BME280;20346;52.702;16.886;2022-08-18T04:20:43;100519.86;;;22.57;61.71
34073;BME280;20346;52.702;16.886;2022-08-18T04:23:28;100525.50;;;22.58;61.81
34073;BME280;20346;52.702;16.886;2022-08-18T04:26:14;100528.03;;;22.60;61.87
34073;BME280;20346;52.702;16.886;2022-08-18T04:29:01;100536.68;;;22.62;61.92
34073;BME280;20346;52.702;16.886;2022-08-18T04:31:47;100533.09;;;22.63;62.05
34073;BME280;20346;52.702;16.886;2022-08-18T04:34:34;100532.89;;;22.66;62.12
34073;BME280;20346;52.702;16.886;2022-08-18T04:37:20;100537.38;;;22.71;62.16
34073;BME280;20346;52.702;16.886;2022-08-18T04:40:07;100537.17;;;22.74;62.21
34073;BME280;20346;52.702;16.886;2022-08-18T04:42:52;100540.45;;;22.77;62.26
34073;BME280;20346;52.702;16.886;2022-08-18T04:45:38;100533.38;;;22.78;62.36
34073;BME280;20346;52.702;16.886;2022-08-18T04:48:23;100526.98;;;22.82;62.41
34073;BME280;20346;52.702;16.886;2022-08-18T04:51:14;100531.20;;;22.85;62.49
34073;BME280;20346;52.702;16.886;2022-08-18T04:54:00;100528.33;;;22.88;62.58
34073;BME280;20346;52.702;16.886;2022-08-18T04:56:45;100527.17;;;22.92;62.65
34073;BME280;20346;52.702;16.886;2022-08-18T04:59:30;100528.91;;;22.98;62.73
34073;BME280;20346;52.702;16.886;2022-08-18T05:02:17;100527.64;;;23.04;62.74
34073;BME280;20346;52.702;16.886;2022-08-18T05:05:06;100531.66;;;23.09;62.83
34073;BME280;20346;52.702;16.886;2022-08-18T05:07:51;100537.83;;;23.16;62.89
34073;BME280;20346;52.702;16.886;2022-08-18T05:10:37;100530.22;;;23.24;62.95
34073;BME280;20346;52.702;16.886;2022-08-18T05:13:24;100538.23;;;23.35;62.96
34073;BME280;20346;52.702;16.886;2022-08-18T05:16:09;100541.51;;;23.44;63.02
34073;BME280;20346;52.702;16.886;2022-08-18T05:18:54;100535.98;;;23.54;63.03
34073;BME280;20346;52.702;16.886;2022-08-18T05:21:40;100530.78;;;23.65;63.08
34073;BME280;20346;52.702;16.886;2022-08-18T05:24:26;100528.83;;;23.80;63.14
34073;BME280;20346;52.702;16.886;2022-08-18T05:27:12;100536.85;;;24.02;63.21
34073;BME280;20346;52.702;16.886;2022-08-18T05:29:57;100531.96;;;24.27;63.19
34073;BME280;20346;52.702;16.886;2022-08-18T05:32:44;100539.73;;;24.58;63.16
34073;BME280;20346;52.702;16.886;2022-08-18T05:35:33;100537.77;;;24.90;63.12
34073;BME280;20346;52.702;16.886;2022-08-18T05:38:50;100539.00;;;25.25;63.06
34073;BME280;20346;52.702;16.886;2022-08-18T05:44:51;100547.05;;;26.05;62.64
34073;BME280;20346;52.702;16.886;2022-08-18T05:47:38;100540.92;;;26.43;62.74
34073;BME280;20346;52.702;16.886;2022-08-18T05:50:23;100543.84;;;26.76;62.64
34073;BME280;20346;52.702;16.886;2022-08-18T05:53:11;100543.48;;;27.01;62.44
34073;BME280;20346;52.702;16.886;2022-08-18T05:56:02;100547.97;;;27.25;62.41
34073;BME280;20346;52.702;16.886;2022-08-18T05:59:07;100542.95;;;27.57;62.14
34073;BME280;20346;52.702;16.886;2022-08-18T06:02:12;100548.02;;;27.85;62.00
34073;BME280;20346;52.702;16.886;2022-08-18T06:05:19;100543.20;;;28.13;61.89
34073;BME280;20346;52.702;16.886;2022-08-18T06:08:10;100540.73;;;28.41;61.66
34073;BME280;20346;52.702;16.886;2022-08-18T06:10:56;100538.84;;;28.70;61.47
34073;BME280;20346;52.702;16.886;2022-08-18T06:13:42;100536.17;;;28.89;61.13
34073;BME280;20346;52.702;16.886;2022-08-18T06:20:03;100539.77;;;29.08;60.77
34073;BME280;20346;52.702;16.886;2022-08-18T06:26:19;100547.66;;;29.50;60.47
34073;BME280;20346;52.702;16.886;2022-08-18T06:35:50;100548.36;;;30.55;59.32
34073;BME280;20346;52.702;16.886;2022-08-18T06:42:02;100554.39;;;31.39;59.08
34073;BME280;20346;52.702;16.886;2022-08-18T06:45:04;100557.00;;;31.65;58.67
34073;BME280;20346;52.702;16.886;2022-08-18T06:50:55;100560.16;;;32.31;58.05
34073;BME280;20346;52.702;16.886;2022-08-18T06:56:47;100574.05;;;32.58;57.14
34073;BME280;20346;52.702;16.886;2022-08-18T06:59:34;100566.52;;;32.58;56.89
34073;BME280;20346;52.702;16.886;2022-08-18T07:02:26;100564.02;;;32.65;56.49
34073;BME280;20346;52.702;16.886;2022-08-18T07:05:22;100568.52;;;32.72;56.03
34073;BME280;20346;52.702;16.886;2022-08-18T07:08:19;100571.20;;;32.76;55.89
34073;BME280;20346;52.702;16.886;2022-08-18T07:11:18;100567.81;;;32.99;55.46
34073;BME280;20346;52.702;16.886;2022-08-18T07:14:20;100565.06;;;33.27;55.02
34073;BME280;20346;52.702;16.886;2022-08-18T07:17:08;100567.62;;;33.91;54.60
34073;BME280;20346;52.702;16.886;2022-08-18T07:19:58;100565.70;;;34.49;54.00
34073;BME280;20346;52.702;16.886;2022-08-18T07:22:54;100567.69;;;34.89;53.48
34073;BME280;20346;52.702;16.886;2022-08-18T07:25:45;100578.89;;;35.26;52.96
34073;BME280;20346;52.702;16.886;2022-08-18T07:28:36;100572.57;;;35.48;52.43
34073;BME280;20346;52.702;16.886;2022-08-18T07:31:38;100574.67;;;35.67;51.93
34073;BME280;20346;52.702;16.886;2022-08-18T07:34:29;100574.44;;;35.73;51.33
34073;BME280;20346;52.702;16.886;2022-08-18T07:37:38;100569.69;;;35.49;51.04
34073;BME280;20346;52.702;16.886;2022-08-18T07:41:32;100568.31;;;35.39;50.65
34073;BME280;20346;52.702;16.886;2022-08-18T07:46:57;100573.65;;;35.13;49.90
34073;BME280;20346;52.702;16.886;2022-08-18T07:49:46;100567.56;;;35.01;49.31
34073;BME280;20346;52.702;16.886;2022-08-18T07:52:37;100564.41;;;34.97;49.18
34073;BME280;20346;52.702;16.886;2022-08-18T07:55:34;100558.08;;;35.09;49.00
34073;BME280;20346;52.702;16.886;2022-08-18T07:58:31;100561.18;;;35.16;48.58
34073;BME280;20346;52.702;16.886;2022-08-18T08:01:37;100563.58;;;35.30;48.36
34073;BME280;20346;52.702;16.886;2022-08-18T08:04:38;100563.67;;;35.47;47.91
34073;BME280;20346;52.702;16.886;2022-08-18T08:08:02;100568.11;;;35.55;47.73
34073;BME280;20346;52.702;16.886;2022-08-18T08:10:42;100567.39;;;35.72;47.31
34073;BME280;20346;52.702;16.886;2022-08-18T08:16:46;100562.39;;;36.86;46.22
34073;BME280;20346;52.702;16.886;2022-08-18T08:36:07;100580.25;;;40.64;42.22
34073;BME280;20346;52.702;16.886;2022-08-18T08:42:10;100579.57;;;40.85;41.17
34073;BME280;20346;52.702;16.886;2022-08-18T08:45:08;100580.00;;;40.57;40.89
34073;BME280;20346;52.702;16.886;2022-08-18T08:48:00;100583.55;;;40.48;40.28
34073;BME280;20346;52.702;16.886;2022-08-18T08:50:57;100585.38;;;40.07;39.87
34073;BME280;20346;52.702;16.886;2022-08-18T08:53:48;100583.21;;;39.91;39.52
34073;BME280;20346;52.702;16.886;2022-08-18T08:56:39;100582.26;;;39.88;39.18
34073;BME280;20346;52.702;16.886;2022-08-18T08:59:26;100580.13;;;39.23;38.56
34073;BME280;20346;52.702;16.886;2022-08-18T09:05:26;100568.84;;;37.67;38.30
34073;BME280;20346;52.702;16.886;2022-08-18T09:23:52;100578.16;;;34.65;38.11
34073;BME280;20346;52.702;16.886;2022-08-18T09:26:53;100573.65;;;34.42;38.17
34073;BME280;20346;52.702;16.886;2022-08-18T09:29:53;100577.38;;;34.37;38.24
34073;BME280;20346;52.702;16.886;2022-08-18T09:39:29;100571.02;;;33.84;38.05
34073;BME280;20346;52.702;16.886;2022-08-18T09:48:34;100548.45;;;33.36;38.28
34073;BME280;20346;52.702;16.886;2022-08-18T09:51:35;100550.48;;;33.30;38.21
34073;BME280;20346;52.702;16.886;2022-08-18T09:54:23;100544.31;;;33.21;38.33
34073;BME280;20346;52.702;16.886;2022-08-18T09:57:24;100539.13;;;33.19;38.49
34073;BME280;20346;52.702;16.886;2022-08-18T10:03:08;100541.94;;;33.30;38.58
34073;BME280;20346;52.702;16.886;2022-08-18T10:06:12;100534.73;;;33.31;38.53
34073;BME280;20346;52.702;16.886;2022-08-18T10:22:05;100516.13;;;33.33;38.64
34073;BME280;20346;52.702;16.886;2022-08-18T10:24:54;100516.91;;;33.46;38.58
34073;BME280;20346;52.702;16.886;2022-08-18T10:27:49;100510.69;;;33.49;38.49
34073;BME280;20346;52.702;16.886;2022-08-18T10:36:49;100508.23;;;33.36;38.34
34073;BME280;20346;52.702;16.886;2022-08-18T10:45:48;100506.56;;;33.35;38.34
34073;BME280;20346;52.702;16.886;2022-08-18T10:48:35;100510.22;;;33.42;38.33
34073;BME280;20346;52.702;16.886;2022-08-18T10:51:30;100507.56;;;33.38;38.15
34073;BME280;20346;52.702;16.886;2022-08-18T11:04:32;100487.59;;;33.05;37.90
34073;BME280;20346;52.702;16.886;2022-08-18T11:07:24;100480.23;;;33.03;37.89
34073;BME280;20346;52.702;16.886;2022-08-18T11:10:41;100480.04;;;33.09;37.77
34073;BME280;20346;52.702;16.886;2022-08-18T11:13:34;100473.36;;;33.05;37.75
34073;BME280;20346;52.702;16.886;2022-08-18T11:19:46;100452.77;;;33.01;37.68
34073;BME280;20346;52.702;16.886;2022-08-18T11:22:33;100463.66;;;33.00;37.53
34073;BME280;20346;52.702;16.886;2022-08-18T11:25:29;100466.19;;;32.97;37.35
34073;BME280;20346;52.702;16.886;2022-08-18T11:28:20;100468.55;;;32.92;37.22
34073;BME280;20346;52.702;16.886;2022-08-18T11:31:07;100464.37;;;32.85;37.14
34073;BME280;20346;52.702;16.886;2022-08-18T11:33:52;100460.37;;;32.81;37.03
34073;BME280;20346;52.702;16.886;2022-08-18T11:36:37;100454.39;;;32.75;36.84
34073;BME280;20346;52.702;16.886;2022-08-18T11:39:22;100450.02;;;32.70;37.02
34073;BME280;20346;52.702;16.886;2022-08-18T11:42:08;100459.74;;;32.67;36.90
34073;BME280;20346;52.702;16.886;2022-08-18T11:45:00;100452.05;;;32.64;36.82
34073;BME280;20346;52.702;16.886;2022-08-18T11:51:18;100449.73;;;32.53;36.30
34073;BME280;20346;52.702;16.886;2022-08-18T11:54:19;100445.23;;;32.45;36.34
34073;BME280;20346;52.702;16.886;2022-08-18T11:57:28;100440.87;;;32.44;36.24
34073;BME280;20346;52.702;16.886;2022-08-18T12:03:44;100437.70;;;32.41;35.99
34073;BME280;20346;52.702;16.886;2022-08-18T12:06:32;100437.20;;;32.41;36.08
34073;BME280;20346;52.702;16.886;2022-08-18T12:09:25;100429.33;;;32.48;36.07
34073;BME280;20346;52.702;16.886;2022-08-18T12:12:31;100418.94;;;32.53;35.97
34073;BME280;20346;52.702;16.886;2022-08-18T12:18:16;100417.53;;;32.77;36.03
34073;BME280;20346;52.702;16.886;2022-08-18T12:21:01;100413.97;;;32.89;35.88
34073;BME280;20346;52.702;16.886;2022-08-18T12:23:47;100419.50;;;32.87;35.83
34073;BME280;20346;52.702;16.886;2022-08-18T12:26:32;100415.99;;;32.87;35.85
34073;BME280;20346;52.702;16.886;2022-08-18T12:29:18;100412.13;;;32.89;35.88
34073;BME280;20346;52.702;16.886;2022-08-18T12:32:04;100411.45;;;32.92;35.79
34073;BME280;20346;52.702;16.886;2022-08-18T12:34:49;100412.12;;;32.94;35.73
34073;BME280;20346;52.702;16.886;2022-08-18T12:37:34;100405.59;;;32.92;35.77
34073;BME280;20346;52.702;16.886;2022-08-18T12:40:21;100401.89;;;32.97;35.76
34073;BME280;20346;52.702;16.886;2022-08-18T12:43:06;100401.84;;;33.05;35.74
34073;BME280;20346;52.702;16.886;2022-08-18T12:45:52;100403.81;;;33.15;35.74
34073;BME280;20346;52.702;16.886;2022-08-18T12:48:37;100398.23;;;33.25;35.67
34073;BME280;20346;52.702;16.886;2022-08-18T12:51:22;100397.70;;;33.30;35.57
34073;BME280;20346;52.702;16.886;2022-08-18T12:54:07;100396.41;;;33.21;35.46
34073;BME280;20346;52.702;16.886;2022-08-18T12:56:53;100403.96;;;33.18;35.62
34073;BME280;20346;52.702;16.886;2022-08-18T12:59:40;100404.81;;;33.14;35.61
34073;BME280;20346;52.702;16.886;2022-08-18T13:02:25;100395.48;;;33.06;35.52
34073;BME280;20346;52.702;16.886;2022-08-18T13:05:11;100397.87;;;32.97;35.44
34073;BME280;20346;52.702;16.886;2022-08-18T13:07:57;100402.93;;;32.88;35.42
34073;BME280;20346;52.702;16.886;2022-08-18T13:10:45;100394.09;;;32.79;35.51
34073;BME280;20346;52.702;16.886;2022-08-18T13:13:31;100401.95;;;32.81;35.71
34073;BME280;20346;52.702;16.886;2022-08-18T13:16:16;100401.94;;;32.85;35.70
34073;BME280;20346;52.702;16.886;2022-08-18T13:19:02;100406.31;;;32.78;35.61
34073;BME280;20346;52.702;16.886;2022-08-18T13:21:47;100407.87;;;32.64;35.74
34073;BME280;20346;52.702;16.886;2022-08-18T13:24:32;100410.05;;;32.61;35.81
34073;BME280;20346;52.702;16.886;2022-08-18T13:27:18;100410.91;;;32.53;35.82
34073;BME280;20346;52.702;16.886;2022-08-18T13:30:09;100404.23;;;32.49;35.85
34073;BME280;20346;52.702;16.886;2022-08-18T13:32:55;100406.91;;;32.45;35.84
34073;BME280;20346;52.702;16.886;2022-08-18T13:35:40;100399.72;;;32.45;35.93
34073;BME280;20346;52.702;16.886;2022-08-18T13:38:26;100393.52;;;32.49;35.98
34073;BME280;20346;52.702;16.886;2022-08-18T13:41:11;100385.30;;;32.54;36.00
34073;BME280;20346;52.702;16.886;2022-08-18T13:43:56;100389.32;;;32.54;35.96
34073;BME280;20346;52.702;16.886;2022-08-18T13:46:41;100392.83;;;32.55;36.00
34073;BME280;20346;52.702;16.886;2022-08-18T13:49:29;100393.67;;;32.55;36.08
34073;BME280;20346;52.702;16.886;2022-08-18T13:52:14;100388.99;;;32.53;36.06
34073;BME280;20346;52.702;16.886;2022-08-18T13:54:59;100392.52;;;32.50;36.06
34073;BME280;20346;52.702;16.886;2022-08-18T13:57:45;100391.67;;;32.49;36.06
34073;BME280;20346;52.702;16.886;2022-08-18T14:00:33;100386.50;;;32.48;36.07
34073;BME280;20346;52.702;16.886;2022-08-18T14:03:19;100386.83;;;32.49;36.06
34073;BME280;20346;52.702;16.886;2022-08-18T14:06:06;100386.16;;;32.51;36.10
34073;BME280;20346;52.702;16.886;2022-08-18T14:08:52;100374.42;;;32.56;36.08
34073;BME280;20346;52.702;16.886;2022-08-18T14:11:37;100375.91;;;32.63;35.96
34073;BME280;20346;52.702;16.886;2022-08-18T14:14:22;100381.75;;;32.66;35.98
34073;BME280;20346;52.702;16.886;2022-08-18T14:17:06;100377.41;;;32.65;35.86
34073;BME280;20346;52.702;16.886;2022-08-18T14:19:52;100376.41;;;32.62;35.86
34073;BME280;20346;52.702;16.886;2022-08-18T14:22:58;100371.73;;;32.60;35.85
34073;BME280;20346;52.702;16.886;2022-08-18T14:26:02;100373.75;;;32.58;35.87
34073;BME280;20346;52.702;16.886;2022-08-18T14:29:05;100381.80;;;32.54;35.92
34073;BME280;20346;52.702;16.886;2022-08-18T14:31:51;100372.44;;;32.50;35.97
34073;BME280;20346;52.702;16.886;2022-08-18T14:34:36;100368.25;;;32.51;36.04
34073;BME280;20346;52.702;16.886;2022-08-18T14:37:20;100372.27;;;32.51;36.01
34073;BME280;20346;52.702;16.886;2022-08-18T14:40:06;100362.39;;;32.52;36.01
34073;BME280;20346;52.702;16.886;2022-08-18T14:42:52;100367.24;;;32.52;35.98
34073;BME280;20346;52.702;16.886;2022-08-18T14:45:37;100370.59;;;32.50;35.98
34073;BME280;20346;52.702;16.886;2022-08-18T14:48:22;100370.10;;;32.47;35.81
34073;BME280;20346;52.702;16.886;2022-08-18T14:51:09;100363.59;;;32.41;35.77
34073;BME280;20346;52.702;16.886;2022-08-18T14:53:55;100360.41;;;32.42;35.82
34073;BME280;20346;52.702;16.886;2022-08-18T14:56:39;100350.71;;;32.41;35.80
34073;BME280;20346;52.702;16.886;2022-08-18T14:59:24;100357.08;;;32.40;35.75
34073;BME280;20346;52.702;16.886;2022-08-18T15:02:11;100359.09;;;32.38;35.73
34073;BME280;20346;52.702;16.886;2022-08-18T15:04:56;100359.42;;;32.35;35.80
34073;BME280;20346;52.702;16.886;2022-08-18T15:07:41;100355.59;;;32.33;35.80
34073;BME280;20346;52.702;16.886;2022-08-18T15:10:26;100349.23;;;32.30;35.86
34073;BME280;20346;52.702;16.886;2022-08-18T15:13:11;100348.23;;;32.27;35.74
34073;BME280;20346;52.702;16.886;2022-08-18T15:15:56;100340.06;;;32.20;35.73
34073;BME280;20346;52.702;16.886;2022-08-18T15:18:42;100337.06;;;32.15;35.73
34073;BME280;20346;52.702;16.886;2022-08-18T15:21:29;100329.22;;;32.06;35.76
34073;BME280;20346;52.702;16.886;2022-08-18T15:24:37;100332.08;;;31.96;35.78
34073;BME280;20346;52.702;16.886;2022-08-18T15:27:42;100330.42;;;31.87;35.81
34073;BME280;20346;52.702;16.886;2022-08-18T15:30:28;100327.25;;;31.79;35.89
34073;BME280;20346;52.702;16.886;2022-08-18T15:33:13;100328.75;;;31.74;35.95
34073;BME280;20346;52.702;16.886;2022-08-18T15:35:59;100329.92;;;31.67;35.95
34073;BME280;20346;52.702;16.886;2022-08-18T15:38:46;100321.41;;;31.59;35.95
34073;BME280;20346;52.702;16.886;2022-08-18T15:41:39;100324.91;;;31.56;35.99
34073;BME280;20346;52.702;16.886;2022-08-18T15:44:25;100325.74;;;31.48;36.06
34073;BME280;20346;52.702;16.886;2022-08-18T15:47:10;100323.23;;;31.43;36.10
34073;BME280;20346;52.702;16.886;2022-08-18T15:49:55;100329.58;;;31.38;36.16
34073;BME280;20346;52.702;16.886;2022-08-18T15:52:52;100328.56;;;31.31;36.15
34073;BME280;20346;52.702;16.886;2022-08-18T15:55:39;100334.73;;;31.27;36.23
34073;BME280;20346;52.702;16.886;2022-08-18T15:58:24;100325.88;;;31.22;36.27
34073;BME280;20346;52.702;16.886;2022-08-18T16:01:09;100333.72;;;31.20;36.29
34073;BME280;20346;52.702;16.886;2022-08-18T16:03:54;100335.59;;;31.15;36.36
34073;BME280;20346;52.702;16.886;2022-08-18T16:06:40;100344.39;;;31.12;36.40
34073;BME280;20346;52.702;16.886;2022-08-18T16:09:27;100344.72;;;31.09;36.43
34073;BME280;20346;52.702;16.886;2022-08-18T16:12:12;100353.23;;;31.08;36.51
34073;BME280;20346;52.702;16.886;2022-08-18T16:14:57;100351.22;;;31.06;36.56
34073;BME280;20346;52.702;16.886;2022-08-18T16:17:43;100354.22;;;31.03;36.58
34073;BME280;20346;52.702;16.886;2022-08-18T16:20:28;100352.03;;;30.99;36.63
34073;BME280;20346;52.702;16.886;2022-08-18T16:23:13;100354.87;;;30.97;36.61
34073;BME280;20346;52.702;16.886;2022-08-18T16:26:02;100351.02;;;30.95;36.67
34073;BME280;20346;52.702;16.886;2022-08-18T16:28:50;100348.52;;;30.94;36.68
34073;BME280;20346;52.702;16.886;2022-08-18T16:31:36;100345.67;;;30.91;36.75
34073;BME280;20346;52.702;16.886;2022-08-18T16:34:22;100351.51;;;30.91;36.80
34073;BME280;20346;52.702;16.886;2022-08-18T16:37:09;100354.18;;;30.91;36.85
34073;BME280;20346;52.702;16.886;2022-08-18T16:39:54;100358.86;;;30.93;36.91
34073;BME280;20346;52.702;16.886;2022-08-18T16:42:39;100349.84;;;30.94;36.96
34073;BME280;20346;52.702;16.886;2022-08-18T16:45:24;100348.85;;;30.95;37.02
34073;BME280;20346;52.702;16.886;2022-08-18T16:48:10;100349.35;;;30.94;37.03
34073;BME280;20346;52.702;16.886;2022-08-18T16:50:56;100344.83;;;30.91;37.03
34073;BME280;20346;52.702;16.886;2022-08-18T16:53:41;100351.33;;;30.88;37.07